Time;durP1;ratioP1;P1;durP2;ratioP2;P2;SDS_P1;SDS_P2;PMS_P1;PMS_P2;Temp;Humidity;BMP_temperature;BMP_pressure;BME280_temperature;BME280_humidity;BME280_pressure;Samples;Min_cycle;Max_cycle;Signal;HPM_P1;HPM_P2
2023/01/24 00:00:13;;;;;;;15.77;12.43;;;15.10;67.40;;;;;;4178450;28;20106;-62
2023/01/24 00:02:54;;;;;;;16.02;11.82;;;15.20;66.90;;;;;;4194171;28;20345;-62
2023/01/24 00:05:35;;;;;;;11.70;10.50;;;15.20;66.50;;;;;;4194296;28;20098;-61
2023/01/24 00:08:19;;;;;;;11.68;10.48;;;15.40;67.50;;;;;;4193868;28;20110;-62
2023/01/24 00:11:03;;;;;;;15.27;11.40;;;15.40;66.10;;;;;;4192671;28;20519;-62
2023/01/24 00:13:44;;;;;;;12.85;11.30;;;15.50;65.80;;;;;;4193721;28;20055;-62
2023/01/24 00:16:25;;;;;;;13.38;11.98;;;15.50;65.70;;;;;;4193433;28;20071;-62
2023/01/24 00:19:06;;;;;;;13.67;12.03;;;15.50;66.40;;;;;;4193740;28;20055;-62
2023/01/24 00:21:47;;;;;;;13.83;12.43;;;15.50;65.70;;;;;;4177040;28;20298;-62
2023/01/24 00:24:29;;;;;;;13.75;12.02;;;15.50;65.60;;;;;;4178740;28;20146;-62
2023/01/24 00:27:11;;;;;;;13.85;11.68;;;15.50;65.70;;;;;;4164670;28;20060;-62
2023/01/24 00:29:52;;;;;;;15.85;11.98;;;15.50;65.70;;;;;;4193674;28;20059;-62
2023/01/24 00:32:34;;;;;;;14.48;12.75;;;15.40;65.60;;;;;;4192889;28;20802;-62
2023/01/24 00:35:15;;;;;;;14.52;11.98;;;15.40;65.80;;;;;;4193913;28;20047;-62
2023/01/24 00:37:56;;;;;;;14.32;12.55;;;15.40;65.40;;;;;;4192761;28;20133;-62
2023/01/24 00:40:37;;;;;;;15.85;13.55;;;15.40;67.00;;;;;;4193439;28;20055;-62
2023/01/24 00:43:20;;;;;;;14.30;12.80;;;15.50;65.90;;;;;;4193514;28;20063;-62
2023/01/24 00:46:01;;;;;;;15.07;12.25;;;15.50;65.60;;;;;;4193607;28;20113;-62
2023/01/24 00:48:42;;;;;;;15.18;11.88;;;15.60;65.10;;;;;;4193202;28;20102;-62
2023/01/24 00:51:23;;;;;;;14.70;12.27;;;15.60;65.30;;;;;;4193227;28;20056;-62
2023/01/24 00:54:05;;;;;;;14.82;12.90;;;15.60;65.10;;;;;;4192045;28;20301;-62
2023/01/24 00:56:45;;;;;;;16.63;12.20;;;15.70;65.00;;;;;;4193165;28;20174;-62
2023/01/24 00:59:28;;;;;;;15.25;13.65;;;15.70;65.00;;;;;;4186572;28;20494;-62
2023/01/24 01:02:08;;;;;;;14.63;12.88;;;15.70;64.80;;;;;;4191599;28;20506;-62
2023/01/24 01:04:49;;;;;;;16.48;13.27;;;15.80;64.50;;;;;;4193442;28;20051;-62
2023/01/24 01:07:30;;;;;;;16.73;14.63;;;15.70;64.50;;;;;;4193467;28;20078;-62
2023/01/24 01:10:12;;;;;;;19.17;13.15;;;15.80;64.60;;;;;;4193350;28;20415;-62
2023/01/24 01:12:53;;;;;;;16.05;13.20;;;15.70;64.50;;;;;;4180248;28;20078;-62
2023/01/24 01:15:35;;;;;;;17.48;13.48;;;15.60;65.60;;;;;;4176715;28;20126;-59
2023/01/24 01:18:17;;;;;;;14.75;13.07;;;15.60;65.00;;;;;;4175416;28;20064;-59
2023/01/24 01:20:58;;;;;;;16.00;13.60;;;15.70;65.10;;;;;;4187133;28;20198;-59
2023/01/24 01:23:40;;;;;;;16.40;13.70;;;15.70;65.80;;;;;;4184719;28;20056;-60
2023/01/24 01:26:22;;;;;;;17.25;14.35;;;15.70;65.00;;;;;;4164751;28;20063;-60
2023/01/24 01:29:03;;;;;;;17.85;13.98;;;15.70;64.70;;;;;;4192591;28;20054;-59
2023/01/24 01:31:45;;;;;;;15.35;13.57;;;15.70;64.90;;;;;;4175459;28;20048;-59
2023/01/24 01:34:26;;;;;;;16.00;13.00;;;15.80;64.80;;;;;;4161041;28;20610;-59
2023/01/24 01:37:08;;;;;;;15.55;13.85;;;15.80;64.70;;;;;;4192786;28;20117;-59
2023/01/24 01:39:49;;;;;;;14.68;12.88;;;15.80;64.50;;;;;;4192932;28;20478;-59
2023/01/24 01:42:41;;;;;;;15.13;12.50;;;15.80;64.50;;;;;;4191241;28;20054;-59
2023/01/24 01:45:40;;;;;;;15.57;13.35;;;15.80;64.20;;;;;;4175389;28;20494;-59
2023/01/24 01:48:35;;;;;;;17.02;13.57;;;15.80;64.30;;;;;;4179908;28;20125;-59
2023/01/24 01:51:18;;;;;;;18.67;14.00;;;15.80;64.60;;;;;;4190485;28;20121;-59
2023/01/24 01:54:03;;;;;;;18.63;13.60;;;15.80;64.80;;;;;;4191955;28;20122;-59
2023/01/24 01:56:49;;;;;;;19.83;14.38;;;15.80;64.80;;;;;;4189966;28;20125;-59
2023/01/24 01:59:33;;;;;;;15.20;13.63;;;15.80;64.80;;;;;;4192661;28;20059;-59
2023/01/24 02:02:14;;;;;;;16.35;14.50;;;15.80;64.60;;;;;;4191930;28;20185;-59
2023/01/24 02:05:00;;;;;;;16.73;14.20;;;15.80;64.80;;;;;;4191359;28;20183;-59
2023/01/24 02:07:46;;;;;;;16.00;13.98;;;15.80;64.70;;;;;;4191097;28;20051;-59
2023/01/24 02:11:37;;;;;;;15.90;14.05;;;15.80;65.60;;;;;;4192640;28;20052;-59
2023/01/24 02:13:31;;;;;;;16.40;13.25;;;15.80;64.80;;;;;;4175469;28;20495;-59
2023/01/24 02:16:11;;;;;;;17.17;14.18;;;15.80;65.00;;;;;;4174788;28;20070;-59
2023/01/24 02:18:57;;;;;;;18.98;13.95;;;15.70;65.00;;;;;;4179544;28;20059;-60
2023/01/24 02:21:40;;;;;;;18.73;14.15;;;15.60;65.30;;;;;;4175865;28;20055;-59
2023/01/24 02:24:26;;;;;;;16.65;13.90;;;15.60;65.40;;;;;;4175727;28;20078;-59
2023/01/24 02:27:08;;;;;;;15.43;13.82;;;15.60;65.70;;;;;;4175942;28;20495;-59
2023/01/24 02:29:49;;;;;;;15.02;13.43;;;15.50;66.60;;;;;;4189109;28;20071;-59
2023/01/24 02:32:30;;;;;;;19.20;14.90;;;15.50;65.70;;;;;;4174895;28;20056;-59
2023/01/24 02:35:23;;;;;;;21.67;14.48;;;15.50;65.90;;;;;;4191612;28;20047;-59
2023/01/24 02:38:12;;;;;;;17.15;14.88;;;15.60;65.90;;;;;;4191803;28;20055;-59
2023/01/24 02:41:04;;;;;;;19.85;14.27;;;15.60;65.80;;;;;;4174791;28;20047;-59
2023/01/24 02:43:50;;;;;;;15.23;13.55;;;15.70;65.20;;;;;;4173941;28;20055;-59
2023/01/24 02:46:31;;;;;;;16.70;14.32;;;15.80;65.00;;;;;;4174521;28;20056;-59
2023/01/24 02:49:12;;;;;;;17.20;13.95;;;15.80;64.80;;;;;;4174607;28;20055;-59
2023/01/24 02:54:52;;;;;;;16.75;13.70;;;15.80;65.10;;;;;;4174370;28;20553;-59
2023/01/24 03:00:32;;;;;;;17.77;14.25;;;15.80;65.10;;;;;;4174775;28;20048;-59
2023/01/24 03:03:16;;;;;;;17.77;14.95;;;15.80;64.80;;;;;;4182603;28;20083;-59
2023/01/24 03:06:00;;;;;;;15.77;13.90;;;15.80;64.50;;;;;;4191007;28;20125;-59
2023/01/24 03:08:46;;;;;;;17.50;13.80;;;15.80;64.50;;;;;;4190668;28;20391;-59
2023/01/24 03:11:36;;;;;;;19.83;14.43;;;15.80;64.60;;;;;;4192090;28;20121;-59
2023/01/24 03:35:09;;;;;;;17.13;14.50;;;15.60;65.30;;;;;;4176959;28;20051;-59
2023/01/24 03:40:52;;;;;;;15.50;13.13;;;15.50;65.90;;;;;;4170798;28;20071;-59
2023/01/24 03:43:33;;;;;;;15.38;12.85;;;15.50;66.20;;;;;;4193225;28;20043;-63
2023/01/24 03:46:14;;;;;;;16.17;13.75;;;15.60;66.30;;;;;;4192925;28;20506;-62
2023/01/24 03:49:04;;;;;;;16.00;13.02;;;15.60;66.00;;;;;;4192080;28;20453;-62
2023/01/24 03:54:48;;;;;;;16.95;13.07;;;15.60;65.70;;;;;;4176685;28;20043;-62
2023/01/24 03:57:30;;;;;;;17.33;13.73;;;15.60;65.90;;;;;;4189730;28;20050;-62
2023/01/24 04:00:16;;;;;;;13.57;12.18;;;15.50;66.00;;;;;;4191229;28;20048;-62
2023/01/24 04:02:57;;;;;;;16.38;13.05;;;15.50;66.20;;;;;;4177547;28;20048;-62
2023/01/24 04:05:37;;;;;;;14.07;12.57;;;15.30;66.30;;;;;;4176488;28;20051;-62
2023/01/24 04:08:20;;;;;;;12.18;10.95;;;15.30;66.80;;;;;;4176678;28;20048;-62
2023/01/24 04:11:02;;;;;;;13.27;11.48;;;15.20;67.00;;;;;;4164475;28;20507;-62
2023/01/24 04:13:44;;;;;;;14.02;11.23;;;15.20;67.40;;;;;;4180861;28;20093;-62
2023/01/24 04:16:25;;;;;;;13.80;11.70;;;15.30;67.40;;;;;;4193828;28;20629;-62
2023/01/24 04:19:23;;;;;;;13.77;11.68;;;15.40;67.20;;;;;;4180991;28;20063;-62
2023/01/24 04:22:04;;;;;;;11.85;10.32;;;15.50;66.70;;;;;;4193628;28;20542;-62
2023/01/24 04:24:48;;;;;;;11.20;9.93;;;15.60;66.40;;;;;;4181074;28;20514;-62
2023/01/24 04:27:30;;;;;;;11.95;10.82;;;15.70;66.00;;;;;;4181176;28;20047;-63
2023/01/24 04:30:17;;;;;;;11.95;10.75;;;15.70;65.70;;;;;;4180921;28;20055;-62
2023/01/24 04:33:03;;;;;;;9.63;8.73;;;15.70;65.60;;;;;;4164640;28;20048;-62
2023/01/24 04:35:44;;;;;;;12.70;10.50;;;15.80;65.40;;;;;;4164719;28;20052;-62
2023/01/24 04:38:26;;;;;;;11.18;9.93;;;15.80;65.40;;;;;;4176852;28;20063;-62
2023/01/24 04:41:21;;;;;;;12.80;10.45;;;15.80;65.40;;;;;;4183297;28;20482;-61
2023/01/24 04:44:02;;;;;;;11.43;10.07;;;15.80;65.30;;;;;;4191386;28;20391;-62
2023/01/24 04:46:44;;;;;;;10.13;9.07;;;15.80;65.10;;;;;;4192288;28;20052;-62
2023/01/24 04:49:25;;;;;;;11.25;10.13;;;15.90;65.10;;;;;;4192693;28;20070;-62
2023/01/24 04:52:07;;;;;;;12.25;11.15;;;15.80;65.20;;;;;;4192232;28;20051;-62
2023/01/24 04:54:59;;;;;;;11.05;9.95;;;15.80;66.00;;;;;;4186340;28;20806;-61
2023/01/24 04:57:43;;;;;;;11.88;10.00;;;15.80;65.20;;;;;;4192006;28;20044;-62
2023/01/24 05:00:25;;;;;;;11.80;10.60;;;15.80;65.00;;;;;;4190534;28;20205;-62
2023/01/24 05:03:06;;;;;;;11.52;10.32;;;15.80;65.10;;;;;;4191598;28;20075;-62
2023/01/24 05:05:49;;;;;;;11.48;10.27;;;15.90;65.20;;;;;;4191884;28;20506;-62
2023/01/24 05:08:31;;;;;;;12.20;10.90;;;15.90;64.90;;;;;;4176457;28;20048;-62
2023/01/24 05:11:12;;;;;;;14.70;11.70;;;16.00;64.70;;;;;;4190623;28;20395;-62
2023/01/24 05:14:00;;;;;;;12.20;11.00;;;16.00;64.70;;;;;;4192016;28;20051;-62
2023/01/24 05:16:41;;;;;;;11.48;10.30;;;15.90;65.50;;;;;;4177454;28;20052;-62
2023/01/24 05:19:23;;;;;;;12.52;11.23;;;15.90;64.70;;;;;;4179614;28;20097;-62
2023/01/24 05:22:04;;;;;;;13.27;11.45;;;15.90;64.80;;;;;;4180221;28;20063;-62
2023/01/24 05:24:50;;;;;;;12.25;10.98;;;15.80;64.90;;;;;;4202144;28;20265;-62
2023/01/24 05:27:31;;;;;;;14.80;11.30;;;15.80;65.10;;;;;;4193167;28;20109;-62
2023/01/24 05:30:17;;;;;;;11.55;10.02;;;15.70;65.30;;;;;;4191430;28;20510;-62
2023/01/24 05:33:01;;;;;;;13.70;11.07;;;15.70;65.50;;;;;;4165097;28;20179;-62
2023/01/24 05:35:44;;;;;;;11.98;10.77;;;15.70;65.60;;;;;;4173832;28;20072;-62
2023/01/24 05:38:26;;;;;;;11.75;10.50;;;15.80;65.40;;;;;;4175193;28;20067;-62
2023/01/24 05:41:08;;;;;;;;;;;15.80;65.10;;;;;;4175826;28;20055;-62
2023/01/24 05:43:50;;;;;;;13.30;11.77;;;15.80;65.20;;;;;;4161568;28;19928;-62
2023/01/24 05:46:36;;;;;;;12.70;11.38;;;15.70;65.20;;;;;;4166381;28;20121;-60
2023/01/24 05:49:33;;;;;;;12.95;11.52;;;15.70;65.20;;;;;;4190875;28;20048;-61
2023/01/24 05:52:20;;;;;;;13.00;10.90;;;15.60;64.50;;;;;;4175113;28;20055;-62
2023/01/24 05:55:05;;;;;;;14.88;12.10;;;15.60;65.00;;;;;;4181457;28;20051;-62
2023/01/24 05:57:51;;;;;;;13.30;11.90;;;15.60;65.40;;;;;;4191417;28;20407;-61
2023/01/24 06:00:48;;;;;;;13.63;11.82;;;15.70;65.60;;;;;;4191140;28;20055;-62
2023/01/24 06:03:44;;;;;;;14.65;12.18;;;15.80;65.60;;;;;;4190809;28;20133;-63
2023/01/24 06:06:26;;;;;;;13.77;11.98;;;15.90;65.30;;;;;;4163826;28;20072;-61
2023/01/24 06:09:08;;;;;;;13.40;12.00;;;16.00;64.80;;;;;;4191695;28;20094;-60
2023/01/24 06:11:49;;;;;;;13.25;11.48;;;16.00;64.60;;;;;;4179826;28;20109;-60
2023/01/24 06:14:32;;;;;;;13.88;12.32;;;16.00;64.50;;;;;;4179616;28;20054;-61
2023/01/24 06:17:14;;;;;;;14.70;11.57;;;16.10;64.50;;;;;;4192511;28;20044;-60
2023/01/24 06:19:57;;;;;;;13.57;10.73;;;16.10;64.40;;;;;;4192252;28;20125;-60
2023/01/24 06:22:45;;;;;;;13.88;11.57;;;16.20;64.20;;;;;;4202987;28;20073;-60
2023/01/24 06:25:28;;;;;;;14.18;12.68;;;16.20;63.70;;;;;;4194820;28;20186;-61
2023/01/24 06:28:10;;;;;;;15.18;12.60;;;16.10;62.70;;;;;;4191329;28;20097;-61
2023/01/24 06:31:03;;;;;;;14.00;11.65;;;16.10;63.20;;;;;;4192280;28;20105;-62
2023/01/24 06:33:57;;;;;;;13.27;11.88;;;16.10;63.50;;;;;;4191812;28;20423;-62
2023/01/24 06:36:51;;;;;;;12.10;10.80;;;16.00;63.70;;;;;;4192456;28;20055;-63
2023/01/24 06:39:33;;;;;;;13.38;11.30;;;16.00;63.80;;;;;;4191449;28;20059;-63
2023/01/24 06:42:15;;;;;;;9.95;9.05;;;16.00;64.00;;;;;;4187736;28;20052;-62
2023/01/24 06:44:55;;;;;;;10.82;9.73;;;15.90;62.50;;;;;;4192221;28;20121;-62
2023/01/24 06:47:36;;;;;;;10.85;9.70;;;15.90;64.00;;;;;;4192084;28;20059;-62
2023/01/24 06:50:19;;;;;;;13.07;9.18;;;15.90;63.40;;;;;;4192089;28;20070;-62
2023/01/24 06:53:02;;;;;;;10.63;8.98;;;15.90;64.20;;;;;;4191439;28;20055;-62
2023/01/24 06:55:45;;;;;;;11.63;9.75;;;16.00;64.30;;;;;;4191921;28;20109;-60
2023/01/24 06:58:28;;;;;;;10.40;8.73;;;16.00;64.30;;;;;;4175606;28;20681;-61
2023/01/24 07:01:09;;;;;;;10.02;9.02;;;16.00;64.50;;;;;;4190233;28;20064;-61
2023/01/24 07:03:50;;;;;;;10.55;8.88;;;16.10;64.50;;;;;;4195268;28;20052;-60
2023/01/24 07:06:31;;;;;;;9.10;8.15;;;16.10;64.30;;;;;;4194921;28;20048;-61
2023/01/24 07:09:13;;;;;;;9.90;8.90;;;16.20;64.30;;;;;;4194692;28;20055;-61
2023/01/24 07:11:57;;;;;;;9.30;8.40;;;16.20;64.90;;;;;;4194533;28;20046;-61
2023/01/24 07:14:38;;;;;;;9.63;8.63;;;16.20;64.10;;;;;;4194439;28;20055;-62
2023/01/24 07:17:19;;;;;;;10.60;8.68;;;16.20;64.20;;;;;;4184435;28;20064;-61
2023/01/24 07:20:01;;;;;;;8.93;8.02;;;16.30;64.10;;;;;;4177985;28;20179;-62
2023/01/24 07:22:43;;;;;;;12.45;9.40;;;16.30;63.80;;;;;;4177066;28;20064;-61
2023/01/24 07:25:27;;;;;;;10.60;8.27;;;16.30;63.80;;;;;;4178397;28;20059;-61
2023/01/24 07:28:09;;;;;;;9.15;8.25;;;16.30;63.90;;;;;;4191999;28;20055;-61
2023/01/24 07:30:50;;;;;;;8.50;7.55;;;16.40;62.90;;;;;;4194519;28;20205;-60
2023/01/24 07:33:31;;;;;;;8.43;7.63;;;16.40;60.30;;;;;;4195085;28;20125;-60
2023/01/24 07:36:13;;;;;;;9.40;8.48;;;16.40;61.00;;;;;;4194697;28;20453;-61
2023/01/24 07:38:54;;;;;;;10.02;7.53;;;16.30;60.50;;;;;;4194872;28;20407;-61
2023/01/24 07:41:38;;;;;;;8.43;7.65;;;16.30;61.50;;;;;;4194298;28;20898;-61
2023/01/24 07:44:20;;;;;;;10.02;8.10;;;16.30;61.60;;;;;;4194254;28;20060;-60
2023/01/24 07:47:01;;;;;;;10.55;8.98;;;16.30;61.80;;;;;;4194014;28;20518;-61
2023/01/24 07:49:42;;;;;;;9.88;7.97;;;16.30;61.80;;;;;;4193957;28;20185;-60
2023/01/24 07:52:23;;;;;;;9.32;8.25;;;16.20;61.60;;;;;;4178031;28;20138;-60
2023/01/24 07:55:05;;;;;;;8.20;7.07;;;16.20;61.70;;;;;;4178119;28;20143;-59
2023/01/24 07:57:47;;;;;;;8.48;7.68;;;16.10;61.80;;;;;;4178012;28;20052;-60
2023/01/24 08:00:28;;;;;;;8.85;6.97;;;16.00;61.90;;;;;;4182926;28;20054;-60
2023/01/24 08:03:10;;;;;;;8.50;7.45;;;15.90;62.40;;;;;;4194469;28;20052;-60
2023/01/24 08:05:50;;;;;;;8.00;7.05;;;15.90;62.50;;;;;;4193899;28;20764;-60
2023/01/24 08:08:31;;;;;;;10.65;7.30;;;15.90;62.50;;;;;;4180360;28;20519;-60
2023/01/24 08:11:15;;;;;;;8.10;7.28;;;16.00;62.40;;;;;;4193294;28;20043;-61
2023/01/24 08:13:57;;;;;;;8.60;7.38;;;16.00;61.80;;;;;;4193802;28;20051;-60
2023/01/24 08:16:38;;;;;;;8.27;7.43;;;16.00;62.00;;;;;;4194259;28;20063;-60
2023/01/24 08:19:19;;;;;;;8.60;7.70;;;16.00;62.10;;;;;;4192292;28;20118;-59
2023/01/24 08:22:20;;;;;;;7.88;7.13;;;16.00;61.90;;;;;;4191348;28;20545;-60
2023/01/24 08:25:00;;;;;;;8.13;7.32;;;16.00;61.10;;;;;;4193680;28;20055;-60
2023/01/24 08:27:41;;;;;;;9.13;7.53;;;16.00;59.90;;;;;;4193864;28;20122;-60
2023/01/24 08:30:25;;;;;;;8.00;7.20;;;16.10;61.20;;;;;;4190689;28;20133;-59
2023/01/24 08:33:08;;;;;;;8.27;7.47;;;16.00;61.10;;;;;;4178797;28;20047;-60
2023/01/24 08:35:49;;;;;;;8.80;7.00;;;16.00;61.20;;;;;;4193614;28;20063;-59
2023/01/24 08:38:30;;;;;;;8.95;7.18;;;16.00;61.40;;;;;;4193147;28;20052;-60
2023/01/24 08:41:11;;;;;;;8.40;7.10;;;16.00;61.30;;;;;;4193138;28;20179;-59
2023/01/24 08:43:53;;;;;;;7.93;6.82;;;16.00;61.40;;;;;;4185861;28;20047;-60
2023/01/24 08:46:35;;;;;;;9.02;6.90;;;16.00;61.20;;;;;;4190543;28;20055;-60
2023/01/24 08:49:16;;;;;;;7.90;7.20;;;16.00;62.00;;;;;;4178134;28;20529;-59
2023/01/24 08:51:59;;;;;;;8.52;7.45;;;16.00;61.20;;;;;;4177287;28;20129;-60
2023/01/24 08:54:40;;;;;;;7.07;6.20;;;16.10;58.90;;;;;;4175860;28;20082;-60
2023/01/24 08:57:23;;;;;;;7.47;6.78;;;16.10;60.20;;;;;;4176836;28;20163;-59
2023/01/24 09:00:05;;;;;;;7.38;6.68;;;16.00;61.00;;;;;;4176788;28;20068;-60
2023/01/24 09:02:47;;;;;;;;;;;16.00;61.10;;;;;;4176246;28;20048;-60
2023/01/24 09:05:28;;;;;;;7.60;6.80;;;16.00;61.70;;;;;;4188940;28;20382;-59
2023/01/24 09:08:09;;;;;;;7.45;6.68;;;16.00;62.00;;;;;;4193065;28;20059;-58
2023/01/24 09:10:50;;;;;;;7.90;6.78;;;16.00;61.70;;;;;;4193246;28;20411;-59
2023/01/24 09:13:31;;;;;;;6.97;6.35;;;16.00;61.80;;;;;;4192692;28;20593;-58
2023/01/24 09:16:12;;;;;;;7.55;6.85;;;16.00;61.50;;;;;;4192370;28;20058;-58
2023/01/24 09:18:54;;;;;;;7.75;6.97;;;15.90;61.70;;;;;;4192570;28;20051;-59
2023/01/24 09:21:35;;;;;;;7.00;6.32;;;15.90;61.90;;;;;;4191818;28;20102;-58
2023/01/24 09:24:16;;;;;;;7.47;6.65;;;15.90;61.90;;;;;;4191964;28;20055;-57
2023/01/24 09:26:57;;;;;;;8.18;7.03;;;16.00;62.00;;;;;;4192783;28;20502;-56
2023/01/24 09:29:38;;;;;;;7.20;6.50;;;16.00;61.70;;;;;;4191437;28;20070;-55
2023/01/24 09:32:19;;;;;;;7.32;6.63;;;16.00;61.10;;;;;;4176058;28;20411;-55
2023/01/24 09:35:01;;;;;;;7.50;6.82;;;16.00;61.20;;;;;;4175771;28;20187;-57
2023/01/24 09:37:44;;;;;;;7.15;6.45;;;16.00;61.10;;;;;;4191643;28;20055;-57
2023/01/24 09:40:30;;;;;;;8.18;6.65;;;15.90;61.20;;;;;;4176208;28;20191;-57
2023/01/24 09:43:17;;;;;;;8.32;6.80;;;15.80;61.40;;;;;;4186943;28;20056;-58
2023/01/24 09:46:06;;;;;;;7.43;6.72;;;15.80;61.50;;;;;;4191296;28;20508;-58
2023/01/24 09:48:50;;;;;;;6.88;6.18;;;15.70;61.80;;;;;;4192129;28;20498;-56
2023/01/24 09:51:36;;;;;;;7.38;6.70;;;15.60;62.10;;;;;;4185420;28;20067;-57
2023/01/24 09:54:22;;;;;;;7.88;6.90;;;15.50;62.00;;;;;;4183446;28;20498;-59
2023/01/24 09:57:11;;;;;;;8.48;7.60;;;15.50;62.90;;;;;;4184551;28;20071;-59
2023/01/24 09:59:56;;;;;;;8.07;6.97;;;15.50;63.90;;;;;;4185988;28;20044;-59
2023/01/24 10:02:37;;;;;;;9.00;6.90;;;15.60;62.80;;;;;;4182372;28;20044;-55
2023/01/24 10:05:19;;;;;;;9.60;7.30;;;15.70;62.40;;;;;;4184918;28;20129;-56
2023/01/24 10:08:15;;;;;;;8.63;6.88;;;15.80;62.00;;;;;;4182046;28;20171;-59
2023/01/24 10:11:08;;;;;;;7.43;6.72;;;15.80;61.30;;;;;;4183398;28;20055;-59
2023/01/24 10:14:16;;;;;;;8.15;7.38;;;15.80;61.90;;;;;;4182939;28;20075;-53
2023/01/24 10:17:11;;;;;;;8.10;7.30;;;15.80;62.30;;;;;;4203908;28;20501;-58
2023/01/24 10:20:43;;;;;;;8.25;7.22;;;15.80;62.80;;;;;;4182616;28;20348;-56
2023/01/24 10:23:28;;;;;;;7.80;7.00;;;15.90;62.70;;;;;;4170200;28;20097;-59
2023/01/24 10:26:18;;;;;;;7.45;6.75;;;15.90;63.20;;;;;;4185574;28;20509;-60
2023/01/24 10:29:10;;;;;;;9.50;7.07;;;15.90;63.90;;;;;;4184328;28;20092;-59
2023/01/24 10:31:57;;;;;;;8.30;7.18;;;15.90;63.00;;;;;;4183037;28;20102;-60
2023/01/24 10:34:43;;;;;;;7.63;6.82;;;15.80;63.10;;;;;;4198048;28;20063;-60
2023/01/24 10:37:26;;;;;;;8.68;7.03;;;15.80;63.70;;;;;;4202395;28;20121;-59
2023/01/24 10:40:13;;;;;;;8.93;7.90;;;15.80;64.00;;;;;;4200783;28;20063;-57
2023/01/24 10:42:55;;;;;;;8.20;7.40;;;15.80;63.80;;;;;;4198340;28;20177;-58
2023/01/24 10:45:46;;;;;;;8.65;7.50;;;15.80;63.90;;;;;;4193727;28;20147;-70
2023/01/24 10:48:40;;;;;;;8.02;7.20;;;15.90;63.90;;;;;;4199932;28;20190;-58
2023/01/24 10:51:23;;;;;;;8.30;7.50;;;16.00;64.40;;;;;;4199484;28;20056;-60
2023/01/24 10:54:05;;;;;;;8.60;7.80;;;16.10;64.00;;;;;;4198538;28;20082;-60
2023/01/24 10:56:47;;;;;;;10.23;8.05;;;16.10;63.70;;;;;;4201418;28;20378;-59
2023/01/24 10:59:29;;;;;;;9.73;7.50;;;16.20;63.60;;;;;;4198317;28;20438;-61
2023/01/24 11:02:21;;;;;;;8.40;7.60;;;16.30;63.80;;;;;;4202022;28;20136;-58
2023/01/24 11:05:05;;;;;;;8.82;8.02;;;16.40;63.40;;;;;;4198438;28;20189;-60
2023/01/24 11:07:47;;;;;;;8.32;7.47;;;16.50;63.40;;;;;;4195708;28;20059;-59
2023/01/24 11:10:35;;;;;;;9.10;8.20;;;16.50;63.10;;;;;;4198464;28;20182;-60
2023/01/24 11:13:29;;;;;;;10.18;7.85;;;16.50;63.10;;;;;;4200473;28;20494;-61
2023/01/24 11:16:23;;;;;;;9.80;8.80;;;16.50;63.00;;;;;;4197568;28;20066;-61
2023/01/24 11:19:06;;;;;;;9.90;8.90;;;16.40;63.50;;;;;;4192276;28;20059;-60
2023/01/24 11:21:52;;;;;;;9.18;8.10;;;16.40;63.70;;;;;;4195756;28;20065;-60
2023/01/24 11:24:43;;;;;;;9.77;8.40;;;16.40;63.80;;;;;;4193145;28;20156;-60
2023/01/24 11:27:26;;;;;;;9.68;8.05;;;16.40;63.70;;;;;;4200536;28;20818;-60
2023/01/24 11:30:21;;;;;;;8.77;7.88;;;16.40;64.20;;;;;;4192259;28;20051;-59
2023/01/24 11:33:20;;;;;;;11.27;9.07;;;16.40;63.60;;;;;;4190819;28;20079;-60
2023/01/24 11:36:04;;;;;;;11.40;9.70;;;16.40;63.60;;;;;;4206009;28;20051;-60
2023/01/24 11:38:46;;;;;;;11.25;9.90;;;16.30;64.10;;;;;;4197438;28;20093;-60
2023/01/24 11:41:32;;;;;;;12.55;10.23;;;16.30;64.50;;;;;;4191113;28;20149;-60
2023/01/24 11:44:35;;;;;;;11.82;9.10;;;16.10;65.00;;;;;;4192355;28;20486;-60
2023/01/24 11:47:20;;;;;;;11.25;10.07;;;16.00;65.20;;;;;;4195532;28;20066;-60
2023/01/24 11:50:32;;;;;;;11.80;9.48;;;15.90;65.80;;;;;;4200376;28;20059;-60
2023/01/24 11:53:40;;;;;;;12.60;9.63;;;15.80;65.60;;;;;;4200295;28;20054;-60
2023/01/24 11:56:30;;;;;;;11.07;9.90;;;15.70;66.00;;;;;;4197556;28;20501;-60
2023/01/24 11:59:37;;;;;;;11.23;9.65;;;15.60;66.60;;;;;;4207793;28;20417;-60
2023/01/24 12:02:40;;;;;;;12.05;9.50;;;15.50;65.90;;;;;;4200174;28;21063;-60
2023/01/24 12:05:38;;;;;;;14.70;11.05;;;15.40;65.90;;;;;;4208280;28;20513;-60
2023/01/24 12:08:32;;;;;;;11.48;9.60;;;15.30;66.50;;;;;;4207739;28;20108;-60
2023/01/24 12:11:20;;;;;;;15.45;12.07;;;15.30;67.40;;;;;;4203447;28;20078;-60
2023/01/24 12:14:41;;;;;;;14.38;10.85;;;15.20;68.10;;;;;;4204759;28;20063;-60
2023/01/24 12:17:46;;;;;;;14.65;11.25;;;15.20;68.10;;;;;;4191851;28;20082;-61
2023/01/24 12:20:57;;;;;;;13.20;10.70;;;15.20;68.20;;;;;;4195356;28;20627;-60
2023/01/24 12:23:45;;;;;;;14.43;10.13;;;15.10;68.30;;;;;;4197390;28;20100;-60
2023/01/24 12:26:29;;;;;;;10.60;9.15;;;15.20;68.90;;;;;;4208022;28;20058;-60
2023/01/24 12:29:16;;;;;;;15.32;11.20;;;15.30;68.50;;;;;;4191781;28;20111;-60
2023/01/24 12:32:04;;;;;;;13.20;10.48;;;15.40;68.20;;;;;;4193702;28;20395;-60
2023/01/24 12:34:50;;;;;;;11.65;10.32;;;15.30;68.00;;;;;;4199347;28;20514;-61
2023/01/24 12:37:39;;;;;;;12.38;10.70;;;15.30;67.80;;;;;;4197103;28;20122;-60
2023/01/24 12:40:27;;;;;;;14.43;11.35;;;15.30;68.00;;;;;;4199358;28;20059;-60
2023/01/24 12:43:18;;;;;;;10.93;9.43;;;15.30;68.60;;;;;;4197447;28;20193;-60
2023/01/24 12:46:07;;;;;;;14.68;10.68;;;15.30;68.80;;;;;;4199956;28;20043;-60
2023/01/24 12:48:53;;;;;;;13.23;11.05;;;15.30;69.20;;;;;;4198666;28;20417;-60
2023/01/24 12:51:41;;;;;;;14.57;10.98;;;15.30;69.40;;;;;;4195367;28;20202;-60
2023/01/24 12:54:30;;;;;;;13.30;10.73;;;15.40;69.20;;;;;;4193914;28;20105;-60
2023/01/24 12:57:18;;;;;;;14.65;11.63;;;15.40;68.80;;;;;;4200664;28;20063;-61
2023/01/24 13:00:00;;;;;;;13.80;11.35;;;15.30;68.90;;;;;;4196355;28;20051;-59
2023/01/24 13:03:02;;;;;;;11.95;10.75;;;15.30;69.10;;;;;;4196129;28;20059;-60
2023/01/24 13:05:50;;;;;;;12.40;10.27;;;15.30;68.90;;;;;;4196278;28;20498;-59
2023/01/24 13:08:47;;;;;;;15.00;12.07;;;15.40;69.40;;;;;;4199474;28;20540;-59
2023/01/24 13:11:30;;;;;;;15.80;11.93;;;15.40;69.30;;;;;;4197101;28;20091;-59
2023/01/24 13:14:18;;;;;;;14.52;10.85;;;15.30;69.40;;;;;;4196953;28;20194;-60
2023/01/24 13:17:14;;;;;;;12.65;11.32;;;15.40;69.40;;;;;;4196482;28;20113;-59
2023/01/24 13:20:22;;;;;;;12.85;10.98;;;15.30;69.60;;;;;;4194998;28;20109;-59
2023/01/24 13:23:31;;;;;;;17.13;10.63;;;15.40;69.40;;;;;;4201383;28;20563;-59
2023/01/24 13:26:42;;;;;;;11.88;10.35;;;15.40;68.70;;;;;;4196155;28;20059;-60
2023/01/24 13:29:38;;;;;;;12.65;10.95;;;15.50;68.30;;;;;;4198398;28;20109;-60
2023/01/24 13:32:21;;;;;;;12.10;9.73;;;15.50;68.40;;;;;;4199745;28;20074;-60
2023/01/24 13:35:02;;;;;;;11.48;9.93;;;15.50;68.10;;;;;;4191117;28;20109;-60
2023/01/24 13:37:51;;;;;;;13.63;10.55;;;15.50;68.40;;;;;;4190956;28;20173;-60
2023/01/24 13:40:34;;;;;;;11.85;10.40;;;15.40;68.10;;;;;;4190928;28;20047;-60
2023/01/24 13:43:51;;;;;;;15.45;12.27;;;15.50;68.60;;;;;;4191122;28;20055;-60
2023/01/24 13:46:59;;;;;;;12.65;11.23;;;15.50;67.80;;;;;;4189911;28;20071;-60
2023/01/24 13:49:45;;;;;;;14.50;11.88;;;15.50;67.60;;;;;;4206113;28;20051;-60
2023/01/24 13:52:50;;;;;;;15.20;12.18;;;15.50;68.30;;;;;;4206629;28;20619;-59
2023/01/24 13:56:02;;;;;;;14.07;11.88;;;15.40;67.90;;;;;;4203632;28;20047;-60
2023/01/24 13:58:53;;;;;;;;;;;15.40;68.40;;;;;;4190401;28;20522;-60
2023/01/24 14:01:34;;;;;;;17.70;12.97;;;15.40;69.10;;;;;;4190552;28;20378;-60
2023/01/24 14:04:16;;;;;;;15.95;12.95;;;15.40;69.20;;;;;;4204757;28;20285;-60
2023/01/24 14:06:57;;;;;;;14.70;12.18;;;15.40;69.00;;;;;;4190709;28;20056;-59
2023/01/24 14:09:38;;;;;;;14.13;11.90;;;15.40;69.00;;;;;;4189587;28;20407;-59
2023/01/24 14:12:20;;;;;;;11.65;10.32;;;15.40;68.70;;;;;;4190153;28;20055;-59
2023/01/24 14:15:03;;;;;;;13.50;11.38;;;15.40;68.50;;;;;;4190705;28;20055;-60
2023/01/24 14:17:49;;;;;;;12.07;10.65;;;15.40;68.40;;;;;;4190339;28;20406;-60
2023/01/24 14:20:43;;;;;;;13.27;11.75;;;15.30;68.10;;;;;;4190744;28;20124;-60
2023/01/24 14:23:30;;;;;;;13.88;12.05;;;15.30;68.90;;;;;;4205953;28;20409;-59
2023/01/24 14:26:15;;;;;;;14.18;11.50;;;15.20;68.20;;;;;;4205765;28;20121;-60
2023/01/24 14:29:01;;;;;;;16.50;12.63;;;15.20;68.50;;;;;;4200441;28;20055;-59
2023/01/24 14:31:46;;;;;;;15.18;11.70;;;15.10;68.80;;;;;;4190639;28;20048;-60
2023/01/24 14:34:34;;;;;;;14.57;11.93;;;15.20;69.20;;;;;;4195699;28;20050;-58
2023/01/24 14:37:18;;;;;;;14.48;11.05;;;15.20;68.80;;;;;;4193782;28;20071;-58
2023/01/24 14:40:19;;;;;;;16.50;12.25;;;15.30;68.30;;;;;;4195854;28;20059;-58
2023/01/24 14:43:02;;;;;;;12.85;11.05;;;15.30;67.70;;;;;;4206196;28;20055;-59